createdAt,value
2023-01-13T00:00:22.303Z,78.79
2023-01-13T00:01:26.459Z,79.10
2023-01-13T00:02:29.279Z,79.06
2023-01-13T00:03:31.028Z,78.36
2023-01-13T00:04:33.564Z,78.13
2023-01-13T00:05:35.553Z,77.74
2023-01-13T00:06:37.450Z,77.08
2023-01-13T00:07:40.360Z,77.67
2023-01-13T00:08:42.444Z,77.20
2023-01-13T00:09:44.137Z,77.40
2023-01-13T00:10:49.158Z,77.59
2023-01-13T00:11:50.924Z,77.52
2023-01-13T00:12:53.960Z,76.97
2023-01-13T00:13:56.153Z,76.76
2023-01-13T00:14:57.912Z,77.26
2023-01-13T00:16:02.245Z,76.91
2023-01-13T00:17:05.531Z,77.53
2023-01-13T00:18:07.305Z,77.93
2023-01-13T00:19:08.987Z,78.12
2023-01-13T00:20:11.425Z,79.65
2023-01-13T00:21:16.369Z,80.71
2023-01-13T00:22:18.362Z,81.58
2023-01-13T00:23:20.275Z,82.34
2023-01-13T00:24:22.387Z,82.88
2023-01-13T00:25:24.327Z,83.44
2023-01-13T00:26:30.835Z,83.68
2023-01-13T00:27:33.362Z,84.71
2023-01-13T00:28:37.384Z,85.33
2023-01-13T00:29:39.144Z,81.52
2023-01-13T00:30:40.923Z,82.80
2023-01-13T00:31:42.652Z,84.75
2023-01-13T00:32:45.117Z,86.54
2023-01-13T00:33:49.324Z,87.88
2023-01-13T00:34:51.731Z,89.05
2023-01-13T00:36:01.459Z,87.50
2023-01-13T00:37:03.234Z,86.89
2023-01-13T00:38:04.902Z,87.88
2023-01-13T00:39:06.956Z,87.98
2023-01-13T00:40:09.634Z,86.06
2023-01-13T00:41:23.085Z,85.11
2023-01-13T00:42:43.778Z,86.71
2023-01-13T00:43:46.294Z,87.64
2023-01-13T00:44:48.155Z,88.60
2023-01-13T00:45:52.827Z,88.96
2023-01-13T00:46:54.600Z,88.97
2023-01-13T00:47:56.378Z,88.36
2023-01-13T00:48:58.159Z,88.96
2023-01-13T00:50:00.116Z,88.92
2023-01-13T00:51:14.958Z,89.49
2023-01-13T00:52:16.736Z,89.78
2023-01-13T00:53:18.870Z,90.00
2023-01-13T00:54:20.666Z,90.72
2023-01-13T00:55:22.739Z,90.66
2023-01-13T00:56:39.753Z,90.78
2023-01-13T00:57:42.326Z,91.12
2023-01-13T00:58:49.882Z,91.17
2023-01-13T00:59:51.526Z,91.31
2023-01-13T01:00:53.403Z,91.49
2023-01-13T01:01:55.266Z,91.47
2023-01-13T01:02:57.059Z,91.35
2023-01-13T01:03:58.787Z,91.59
2023-01-13T01:05:01.173Z,91.69
2023-01-13T01:06:16.123Z,91.55
2023-01-13T01:07:17.768Z,91.87
2023-01-13T01:08:19.565Z,91.62
2023-01-13T01:09:21.407Z,91.49
2023-01-13T01:10:23.184Z,91.71
2023-01-13T01:11:27.895Z,91.33
2023-01-13T01:12:29.678Z,91.03
2023-01-13T01:13:32.700Z,90.17
2023-01-13T01:14:34.688Z,90.70
2023-01-13T01:15:40.349Z,91.01
2023-01-13T01:16:42.514Z,90.43
2023-01-13T01:17:44.154Z,90.92
2023-01-13T01:18:47.852Z,90.71
2023-01-13T01:19:50.257Z,88.53
2023-01-13T01:20:52.158Z,89.46
2023-01-13T01:21:55.390Z,89.50
2023-01-13T01:22:57.057Z,88.93
2023-01-13T01:24:01.285Z,86.79
2023-01-13T01:25:03.384Z,87.56
2023-01-13T01:26:11.953Z,88.32
2023-01-13T01:27:13.789Z,88.71
2023-01-13T01:28:18.422Z,88.05
2023-01-13T01:29:20.110Z,88.47
2023-01-13T01:30:21.811Z,87.32
2023-01-13T01:31:29.370Z,86.47
2023-01-13T01:32:34.238Z,86.33
2023-01-13T01:33:36.101Z,85.09
2023-01-13T01:34:39.338Z,86.73
2023-01-13T01:35:41.433Z,84.75
2023-01-13T01:36:43.233Z,84.46
2023-01-13T01:37:45.214Z,81.41
2023-01-13T01:38:48.345Z,79.93
2023-01-13T01:39:50.216Z,77.89
2023-01-13T01:40:52.004Z,76.84
2023-01-13T01:42:12.206Z,76.01
2023-01-13T01:43:39.682Z,72.77
2023-01-13T01:44:58.672Z,71.55
2023-01-13T01:46:00.699Z,70.93
2023-01-13T01:47:02.438Z,71.00
2023-01-13T01:48:05.797Z,70.75
2023-01-13T01:49:31.901Z,71.58
2023-01-13T01:50:36.116Z,70.43
2023-01-13T01:51:50.002Z,69.73
2023-01-13T01:53:00.584Z,69.83
2023-01-13T01:54:07.430Z,68.99
2023-01-13T01:55:16.291Z,68.67
2023-01-13T01:56:20.413Z,69.90
2023-01-13T01:57:36.231Z,68.49
2023-01-13T01:58:50.274Z,69.10
2023-01-13T01:59:52.142Z,69.72
2023-01-13T02:00:53.953Z,70.38
2023-01-13T02:01:56.426Z,70.25
2023-01-13T02:03:00.760Z,70.90
2023-01-13T02:04:14.267Z,70.84
2023-01-13T02:05:16.540Z,71.69
2023-01-13T02:06:19.258Z,71.08
2023-01-13T02:07:28.252Z,69.42
2023-01-13T02:08:30.519Z,69.35
2023-01-13T02:09:35.317Z,69.95
2023-01-13T02:10:38.273Z,71.75
2023-01-13T02:11:58.512Z,71.17
2023-01-13T02:13:05.363Z,70.54
2023-01-13T02:14:07.401Z,71.11
2023-01-13T02:15:14.637Z,70.19
2023-01-13T02:16:23.471Z,68.55
2023-01-13T02:17:51.928Z,69.16
2023-01-13T02:19:15.096Z,69.08
2023-01-13T02:20:29.134Z,69.83
2023-01-13T02:21:53.012Z,70.38
2023-01-13T02:23:42.331Z,70.14
2023-01-13T02:25:11.820Z,70.55
2023-01-13T02:26:31.941Z,69.42
2023-01-13T02:27:46.734Z,70.42
2023-01-13T02:29:24.426Z,71.37
2023-01-13T02:31:12.495Z,71.52
2023-01-13T02:32:26.301Z,71.99
2023-01-13T02:33:34.842Z,71.87
2023-01-13T02:34:44.893Z,72.86
2023-01-13T02:35:57.558Z,72.52
2023-01-13T02:37:18.999Z,72.59
2023-01-13T02:38:29.992Z,72.39
2023-01-13T02:39:46.214Z,72.77
2023-01-13T02:41:29.302Z,72.49
2023-01-13T02:42:53.567Z,73.12
2023-01-13T02:44:07.062Z,73.47
2023-01-13T02:45:38.032Z,73.41
2023-01-13T02:47:18.993Z,73.50
2023-01-13T02:48:24.196Z,73.84
2023-01-13T02:49:36.692Z,73.86
2023-01-13T02:50:50.990Z,73.84
2023-01-13T02:51:59.669Z,71.93
2023-01-13T02:53:13.838Z,71.90
2023-01-13T02:54:28.582Z,72.48
2023-01-13T02:55:37.917Z,72.14
2023-01-13T02:56:44.632Z,71.51
2023-01-13T02:57:49.853Z,71.65
2023-01-13T02:58:56.041Z,71.53
2023-01-13T03:00:00.419Z,71.74
2023-01-13T03:01:02.376Z,72.19
2023-01-13T03:02:12.678Z,72.13
2023-01-13T03:03:14.789Z,71.12
2023-01-13T03:04:47.493Z,71.05
2023-01-13T03:05:55.860Z,72.07
2023-01-13T03:07:13.490Z,71.80
2023-01-13T03:08:39.818Z,71.86
2023-01-13T03:10:23.518Z,71.31
2023-01-13T03:11:33.478Z,70.99
2023-01-13T03:12:48.235Z,70.23
2023-01-13T03:14:47.479Z,69.59
2023-01-13T03:16:16.791Z,69.35
2023-01-13T03:17:35.249Z,69.93
2023-01-13T03:18:55.199Z,69.17
2023-01-13T03:20:21.669Z,68.99
2023-01-13T03:21:48.364Z,69.22
2023-01-13T03:23:15.709Z,69.04
2023-01-13T03:24:27.571Z,69.51
2023-01-13T03:25:41.513Z,69.22
2023-01-13T03:27:09.013Z,69.49
2023-01-13T03:28:37.540Z,69.01
2023-01-13T03:30:04.077Z,69.17
2023-01-13T03:31:15.695Z,68.32
2023-01-13T03:32:31.189Z,68.79
2023-01-13T03:33:45.836Z,68.89
2023-01-13T03:34:56.047Z,68.53
2023-01-13T03:36:04.891Z,68.63
2023-01-13T03:37:10.088Z,68.58
2023-01-13T03:38:50.073Z,68.98
2023-01-13T03:39:59.266Z,68.86
2023-01-13T03:41:11.984Z,68.69
2023-01-13T03:42:20.578Z,69.35
2023-01-13T03:43:50.386Z,70.00
2023-01-13T03:45:03.744Z,68.89
2023-01-13T03:46:14.393Z,69.41
2023-01-13T03:47:23.223Z,69.29
2023-01-13T03:48:29.343Z,69.57
2023-01-13T03:49:44.861Z,68.97
2023-01-13T03:50:51.971Z,69.33
2023-01-13T03:52:02.673Z,68.34
2023-01-13T03:53:12.686Z,68.96
2023-01-13T03:54:19.955Z,68.76
2023-01-13T03:55:28.438Z,68.99
2023-01-13T03:56:42.769Z,69.15
2023-01-13T03:58:10.913Z,68.98
2023-01-13T03:59:21.446Z,69.58
2023-01-13T04:00:30.212Z,69.78
2023-01-13T04:02:06.117Z,69.74
2023-01-13T04:03:12.257Z,69.63
2023-01-13T04:04:23.320Z,69.84
2023-01-13T04:05:27.644Z,68.81
2023-01-13T04:06:40.409Z,68.62
2023-01-13T04:08:14.110Z,67.78
2023-01-13T04:09:24.581Z,68.60
2023-01-13T04:10:50.819Z,68.37
2023-01-13T04:12:03.263Z,68.04
2023-01-13T04:13:12.107Z,68.35
2023-01-13T04:14:19.473Z,68.35
2023-01-13T04:15:24.282Z,68.71
2023-01-13T04:16:26.235Z,68.59
2023-01-13T04:17:27.803Z,69.00
2023-01-13T04:18:31.081Z,69.31
2023-01-13T04:19:34.066Z,70.16
2023-01-13T04:20:35.758Z,69.41
2023-01-13T04:21:37.342Z,69.93
2023-01-13T04:22:38.902Z,69.53
2023-01-13T04:23:40.565Z,69.49
2023-01-13T04:24:42.120Z,69.98
2023-01-13T04:25:45.538Z,69.97
2023-01-13T04:26:47.060Z,70.42
2023-01-13T04:27:48.723Z,70.03
2023-01-13T04:28:51.867Z,70.23
2023-01-13T04:29:53.324Z,70.62
2023-01-13T04:30:54.860Z,70.25
2023-01-13T04:31:56.363Z,70.34
2023-01-13T04:33:00.602Z,69.97
2023-01-13T04:34:02.125Z,69.89
2023-01-13T04:35:03.929Z,70.69
2023-01-13T04:36:05.840Z,70.50
2023-01-13T04:37:07.363Z,70.73
2023-01-13T04:38:11.973Z,70.78
2023-01-13T04:39:13.625Z,70.97
2023-01-13T04:40:19.064Z,71.92
2023-01-13T04:41:20.600Z,72.50
2023-01-13T04:42:24.696Z,73.02
2023-01-13T04:43:26.158Z,73.10
2023-01-13T04:44:29.020Z,71.97
2023-01-13T04:45:31.215Z,71.32
2023-01-13T04:46:32.686Z,71.81
2023-01-13T04:47:34.174Z,72.19
2023-01-13T04:48:35.942Z,71.57
2023-01-13T04:49:37.549Z,71.05
2023-01-13T04:50:39.254Z,71.14
2023-01-13T04:51:40.818Z,71.26
2023-01-13T04:52:42.386Z,71.76
2023-01-13T04:53:43.813Z,72.05
2023-01-13T04:54:45.420Z,72.33
2023-01-13T04:55:47.862Z,72.39
2023-01-13T04:56:49.538Z,72.35
2023-01-13T04:57:51.221Z,72.11
2023-01-13T04:58:52.796Z,72.27
2023-01-13T04:59:54.263Z,72.47
2023-01-13T05:00:56.016Z,72.58
2023-01-13T05:01:58.679Z,71.60
2023-01-13T05:03:01.172Z,70.79
2023-01-13T05:04:03.453Z,70.63
2023-01-13T05:05:05.365Z,70.81
2023-01-13T05:06:07.000Z,70.71
2023-01-13T05:07:08.503Z,71.49
2023-01-13T05:08:10.368Z,71.60
2023-01-13T05:09:13.465Z,71.56
2023-01-13T05:10:15.288Z,70.67
2023-01-13T05:11:35.346Z,70.66
2023-01-13T05:12:55.611Z,70.60
2023-01-13T05:14:15.555Z,70.36
2023-01-13T05:15:35.633Z,70.04
2023-01-13T05:16:55.946Z,70.42
2023-01-13T05:17:57.937Z,69.57
2023-01-13T05:18:59.576Z,69.96
2023-01-13T05:20:01.286Z,69.77
2023-01-13T05:21:02.798Z,69.47
2023-01-13T05:22:27.974Z,70.16
2023-01-13T05:23:48.117Z,70.62
2023-01-13T05:25:08.226Z,69.56
2023-01-13T05:26:09.968Z,69.58
2023-01-13T05:27:12.028Z,70.00
2023-01-13T05:28:13.960Z,70.29
2023-01-13T05:29:15.477Z,70.29
2023-01-13T05:30:17.862Z,70.93
2023-01-13T05:31:19.441Z,71.48
2023-01-13T05:32:22.161Z,70.60
2023-01-13T05:33:23.849Z,70.55
2023-01-13T05:34:25.488Z,70.96
2023-01-13T05:35:26.911Z,70.88
2023-01-13T05:36:28.422Z,70.50
2023-01-13T05:37:30.187Z,70.34
2023-01-13T05:38:31.746Z,70.42
2023-01-13T05:39:52.320Z,70.72
2023-01-13T05:41:12.303Z,70.89
2023-01-13T05:42:32.532Z,70.39
2023-01-13T05:43:34.825Z,70.51
2023-01-13T05:44:36.287Z,70.30
2023-01-13T05:45:37.736Z,69.74
2023-01-13T05:46:40.502Z,69.72
2023-01-13T05:47:42.300Z,68.98
2023-01-13T05:48:44.915Z,69.75
2023-01-13T05:49:47.989Z,69.79
2023-01-13T05:50:50.744Z,69.59
2023-01-13T05:51:53.233Z,69.77
2023-01-13T05:52:56.208Z,69.43
2023-01-13T05:53:59.192Z,69.05
2023-01-13T05:55:00.959Z,69.41
2023-01-13T05:56:07.069Z,68.67
2023-01-13T05:57:08.694Z,68.25
2023-01-13T05:58:12.031Z,68.06
2023-01-13T05:59:13.680Z,68.63
2023-01-13T06:00:15.930Z,68.71
2023-01-13T06:01:17.453Z,68.69
2023-01-13T06:02:18.972Z,68.00
2023-01-13T06:03:20.720Z,68.12
2023-01-13T06:04:22.229Z,68.78
2023-01-13T06:05:23.919Z,69.07
2023-01-13T06:06:25.512Z,68.89
2023-01-13T06:07:27.053Z,68.68
2023-01-13T06:08:29.537Z,68.59
2023-01-13T06:09:31.435Z,68.83
2023-01-13T06:10:34.395Z,68.90
2023-01-13T06:11:36.079Z,68.98
2023-01-13T06:12:37.555Z,67.61
2023-01-13T06:13:39.294Z,68.17
2023-01-13T06:14:41.060Z,67.94
2023-01-13T06:15:42.653Z,67.97
2023-01-13T06:16:45.516Z,68.37
2023-01-13T06:17:47.831Z,68.33
2023-01-13T06:18:49.299Z,67.68
2023-01-13T06:19:51.269Z,68.22
2023-01-13T06:20:53.615Z,68.35
2023-01-13T06:21:57.848Z,68.26
2023-01-13T06:23:01.055Z,68.68
2023-01-13T06:24:03.275Z,69.14
2023-01-13T06:25:13.505Z,68.98
2023-01-13T06:26:20.141Z,68.47
2023-01-13T06:27:23.092Z,68.13
2023-01-13T06:28:24.674Z,68.53
2023-01-13T06:29:26.327Z,68.62
2023-01-13T06:30:34.057Z,68.58
2023-01-13T06:31:39.113Z,68.90
2023-01-13T06:32:47.867Z,68.32
2023-01-13T06:33:59.640Z,67.72
2023-01-13T06:35:08.283Z,66.36
2023-01-13T06:36:16.504Z,66.78
2023-01-13T06:37:23.327Z,67.32
2023-01-13T06:38:29.231Z,67.39
2023-01-13T06:39:32.135Z,67.00
2023-01-13T06:40:34.766Z,68.04
2023-01-13T06:41:55.028Z,68.41
2023-01-13T06:43:17.439Z,68.23
2023-01-13T06:44:22.523Z,68.07
2023-01-13T06:45:27.548Z,67.74
2023-01-13T06:46:29.075Z,68.53
2023-01-13T06:47:31.372Z,68.03
2023-01-13T06:48:35.600Z,67.70
2023-01-13T06:49:37.364Z,67.83
2023-01-13T06:50:38.904Z,68.33
2023-01-13T06:51:40.564Z,68.36
2023-01-13T06:52:42.149Z,68.15
2023-01-13T06:53:43.861Z,68.33
2023-01-13T06:54:45.345Z,68.85
2023-01-13T06:55:46.861Z,68.23
2023-01-13T06:56:48.464Z,67.99
2023-01-13T06:57:54.983Z,68.22
2023-01-13T06:58:56.767Z,68.70
2023-01-13T06:59:58.416Z,68.05
2023-01-13T07:01:01.046Z,68.30
2023-01-13T07:02:03.729Z,67.53
2023-01-13T07:03:09.801Z,68.05
2023-01-13T07:04:11.608Z,68.44
2023-01-13T07:05:14.434Z,68.79
2023-01-13T07:06:16.142Z,68.37
2023-01-13T07:07:17.672Z,68.10
2023-01-13T07:08:20.077Z,68.01
2023-01-13T07:09:21.519Z,67.73
2023-01-13T07:10:23.043Z,67.85
2023-01-13T07:11:27.257Z,67.93
2023-01-13T07:12:29.351Z,67.48
2023-01-13T07:13:49.842Z,67.76
2023-01-13T07:15:11.174Z,68.21
2023-01-13T07:16:13.139Z,67.12
2023-01-13T07:17:14.825Z,66.65
2023-01-13T07:18:16.418Z,66.97
2023-01-13T07:19:23.133Z,66.95
2023-01-13T07:20:24.753Z,66.74
2023-01-13T07:21:26.411Z,66.94
2023-01-13T07:22:28.115Z,66.88
2023-01-13T07:23:35.708Z,67.58
2023-01-13T07:24:37.152Z,67.43
2023-01-13T07:25:41.856Z,67.52
2023-01-13T07:26:43.509Z,67.17
2023-01-13T07:27:45.018Z,66.84
2023-01-13T07:28:46.558Z,67.11
2023-01-13T07:29:48.031Z,67.03
2023-01-13T07:30:49.902Z,67.19
2023-01-13T07:31:51.377Z,67.56
2023-01-13T07:32:52.984Z,67.23
2023-01-13T07:33:54.635Z,67.51
2023-01-13T07:35:03.500Z,67.23
2023-01-13T07:36:06.161Z,67.00
2023-01-13T07:37:07.665Z,67.66
2023-01-13T07:38:09.191Z,67.67
2023-01-13T07:39:10.725Z,68.05
2023-01-13T07:40:13.042Z,68.20
2023-01-13T07:41:33.875Z,68.63
2023-01-13T07:42:56.809Z,69.19
2023-01-13T07:44:04.906Z,69.26
2023-01-13T07:45:07.031Z,69.59
2023-01-13T07:46:08.682Z,69.21
2023-01-13T07:47:11.315Z,69.34
2023-01-13T07:48:13.459Z,69.40
2023-01-13T07:49:15.183Z,69.37
2023-01-13T07:50:16.767Z,69.48
2023-01-13T07:51:18.680Z,69.78
2023-01-13T07:52:20.818Z,68.73
2023-01-13T07:53:24.962Z,68.90
2023-01-13T07:54:39.798Z,68.37
2023-01-13T07:55:43.545Z,69.08
2023-01-13T07:56:45.294Z,69.08
2023-01-13T07:57:48.339Z,69.50
2023-01-13T07:58:53.396Z,69.33
2023-01-13T07:59:55.192Z,69.06
2023-01-13T08:00:57.753Z,68.96
2023-01-13T08:01:59.629Z,69.30
2023-01-13T08:03:01.741Z,68.81
2023-01-13T08:04:03.355Z,69.16
2023-01-13T08:05:05.971Z,69.28
2023-01-13T08:06:07.854Z,69.37
2023-01-13T08:07:09.495Z,69.78
2023-01-13T08:08:11.259Z,69.66
2023-01-13T08:09:12.882Z,69.69
2023-01-13T08:10:14.472Z,69.87
2023-01-13T08:11:16.048Z,70.30
2023-01-13T08:12:35.938Z,70.16
2023-01-13T08:13:37.823Z,69.79
2023-01-13T08:14:39.431Z,70.00
2023-01-13T08:15:40.953Z,70.19
2023-01-13T08:16:42.689Z,70.34
2023-01-13T08:17:44.274Z,70.27
2023-01-13T08:18:45.674Z,70.07
2023-01-13T08:19:47.534Z,69.96
2023-01-13T08:20:50.212Z,70.16
2023-01-13T08:21:51.842Z,70.06
2023-01-13T08:23:00.915Z,69.77
2023-01-13T08:24:02.364Z,70.02
2023-01-13T08:25:04.180Z,70.52
2023-01-13T08:26:09.052Z,70.34
2023-01-13T08:27:10.478Z,70.63
2023-01-13T08:28:13.323Z,70.71
2023-01-13T08:29:15.285Z,70.45
2023-01-13T08:30:18.394Z,70.63
2023-01-13T08:31:21.912Z,70.20
2023-01-13T08:32:23.430Z,70.73
2023-01-13T08:33:25.294Z,70.95
2023-01-13T08:34:26.953Z,71.02
2023-01-13T08:35:28.406Z,70.52
2023-01-13T08:36:30.029Z,70.09
2023-01-13T08:37:31.746Z,69.89
2023-01-13T08:38:34.608Z,69.99
2023-01-13T08:39:36.211Z,69.57
2023-01-13T08:40:40.539Z,69.80
2023-01-13T08:42:01.978Z,69.67
2023-01-13T08:43:03.844Z,69.77
2023-01-13T08:44:06.503Z,70.13
2023-01-13T08:45:08.922Z,70.15
2023-01-13T08:46:10.629Z,69.85
2023-01-13T08:47:13.521Z,70.06
2023-01-13T08:48:15.171Z,69.90
2023-01-13T08:49:17.515Z,69.90
2023-01-13T08:50:19.873Z,69.99
2023-01-13T08:51:21.506Z,69.45
2023-01-13T08:52:24.514Z,68.74
2023-01-13T08:53:26.289Z,69.28
2023-01-13T08:54:27.717Z,68.68
2023-01-13T08:55:29.276Z,68.58
2023-01-13T08:56:35.041Z,68.72
2023-01-13T08:57:36.945Z,69.27
2023-01-13T08:58:39.013Z,68.70
2023-01-13T08:59:40.745Z,68.71
2023-01-13T09:00:43.213Z,68.90
2023-01-13T09:01:45.803Z,68.78
2023-01-13T09:02:47.501Z,68.50
2023-01-13T09:03:49.146Z,68.19
2023-01-13T09:04:51.432Z,67.73
2023-01-13T09:05:53.179Z,67.90
2023-01-13T09:06:56.089Z,67.80
2023-01-13T09:07:57.695Z,67.65
2023-01-13T09:08:59.832Z,68.09
2023-01-13T09:10:01.799Z,67.83
2023-01-13T09:11:23.672Z,67.39
2023-01-13T09:12:44.253Z,67.60
2023-01-13T09:13:45.762Z,67.61
2023-01-13T09:14:47.679Z,66.68
2023-01-13T09:15:49.740Z,66.84
2023-01-13T09:16:51.316Z,66.99
2023-01-13T09:17:52.801Z,66.78
2023-01-13T09:18:54.506Z,67.07
2023-01-13T09:19:56.168Z,66.76
2023-01-13T09:20:58.972Z,66.37
2023-01-13T09:22:00.632Z,66.07
2023-01-13T09:23:02.949Z,66.38
2023-01-13T09:24:04.719Z,65.84
2023-01-13T09:25:08.277Z,65.70
2023-01-13T09:26:11.274Z,65.99
2023-01-13T09:27:15.262Z,65.21
2023-01-13T09:28:16.811Z,65.82
2023-01-13T09:29:18.735Z,66.59
2023-01-13T09:30:20.527Z,66.04
2023-01-13T09:31:22.546Z,66.10
2023-01-13T09:32:24.205Z,64.86
2023-01-13T09:33:44.301Z,66.04
2023-01-13T09:35:01.095Z,65.47
2023-01-13T09:36:12.927Z,65.14
2023-01-13T09:37:15.744Z,64.81
2023-01-13T09:38:18.118Z,65.75
2023-01-13T09:39:23.240Z,65.12
2023-01-13T09:42:56.912Z,64.78
2023-01-13T09:44:02.754Z,65.25
2023-01-13T09:45:25.425Z,64.90
2023-01-13T09:46:57.856Z,64.71
2023-01-13T09:48:08.953Z,63.63
2023-01-13T09:49:20.947Z,62.95
2023-01-13T09:50:44.135Z,64.00
2023-01-13T09:51:55.367Z,63.48
2023-01-13T09:53:01.632Z,64.14
2023-01-13T09:54:51.886Z,64.43
2023-01-13T09:56:03.824Z,63.90
2023-01-13T09:57:12.428Z,63.74
2023-01-13T09:58:24.772Z,63.74
2023-01-13T10:01:59.443Z,62.29
2023-01-13T10:03:33.462Z,63.14
2023-01-13T10:05:20.217Z,63.63
2023-01-13T10:07:07.828Z,63.86
2023-01-13T10:08:36.908Z,63.34
2023-01-13T10:10:09.481Z,63.41
2023-01-13T10:11:59.067Z,62.90
2023-01-13T10:13:34.497Z,62.97
2023-01-13T10:14:51.447Z,62.76
2023-01-13T10:16:54.289Z,62.94
2023-01-13T10:19:10.118Z,63.10
2023-01-13T10:20:37.299Z,62.93
2023-01-13T10:21:52.269Z,62.98
2023-01-13T10:23:38.995Z,62.98
2023-01-13T10:25:09.662Z,62.18
2023-01-13T10:26:50.140Z,63.24
2023-01-13T10:27:55.523Z,62.13
2023-01-13T10:28:58.476Z,62.50
2023-01-13T10:30:31.662Z,62.69
2023-01-13T10:31:33.356Z,62.54
2023-01-13T10:32:34.828Z,63.00
2023-01-13T10:33:36.462Z,62.57
2023-01-13T10:34:51.911Z,61.88
2023-01-13T10:36:00.643Z,62.23
2023-01-13T10:37:09.014Z,62.55
2023-01-13T10:38:19.697Z,62.54
2023-01-13T10:40:48.190Z,62.14
2023-01-13T10:41:58.256Z,61.84
2023-01-13T10:43:06.580Z,62.04
2023-01-13T10:45:03.591Z,61.29
2023-01-13T10:46:33.667Z,61.99
2023-01-13T10:47:41.139Z,62.28
2023-01-13T10:49:41.121Z,61.68
2023-01-13T10:50:43.214Z,61.86
2023-01-13T10:51:53.415Z,61.67
2023-01-13T10:53:32.303Z,61.72
2023-01-13T10:54:36.501Z,62.40
2023-01-13T10:55:38.082Z,61.87
2023-01-13T10:56:41.925Z,61.07
2023-01-13T10:58:01.612Z,62.07
2023-01-13T10:59:15.020Z,61.02
2023-01-13T11:00:28.248Z,60.99
2023-01-13T11:02:24.398Z,60.87
2023-01-13T11:05:41.219Z,61.34
2023-01-13T11:06:47.170Z,61.38
2023-01-13T11:07:59.673Z,61.42
2023-01-13T11:09:12.199Z,61.78
2023-01-13T11:10:33.375Z,61.90
2023-01-13T11:13:08.270Z,61.05
2023-01-13T11:14:54.789Z,62.33
2023-01-13T11:17:11.000Z,61.66
2023-01-13T11:18:31.464Z,62.52
2023-01-13T11:20:10.044Z,61.19
2023-01-13T11:21:23.711Z,60.84
2023-01-13T11:23:11.682Z,60.53
2023-01-13T11:25:00.677Z,59.38
2023-01-13T11:26:33.512Z,59.17
2023-01-13T11:28:21.887Z,59.19
2023-01-13T11:30:09.589Z,58.74
2023-01-13T11:31:44.032Z,58.82
2023-01-13T11:34:36.751Z,59.13
2023-01-13T11:36:05.393Z,58.91
2023-01-13T11:37:36.554Z,59.77
2023-01-13T11:39:00.318Z,58.76
2023-01-13T11:40:48.955Z,59.72
2023-01-13T11:42:22.149Z,59.70
2023-01-13T11:46:38.390Z,58.00
2023-01-13T11:48:08.061Z,58.61
2023-01-13T11:49:34.946Z,58.14
2023-01-13T11:55:55.463Z,58.72
2023-01-13T11:57:54.232Z,59.85
2023-01-13T11:59:33.916Z,59.69
2023-01-13T12:01:03.816Z,59.52
2023-01-13T12:03:00.300Z,59.30
2023-01-13T12:06:07.814Z,58.65
2023-01-13T12:07:40.264Z,59.36
2023-01-13T12:12:13.973Z,59.10
2023-01-13T12:13:24.188Z,59.35
2023-01-13T12:15:48.453Z,59.23
2023-01-13T12:17:06.624Z,59.35
2023-01-13T12:18:32.731Z,58.94
2023-01-13T12:19:34.416Z,58.42
2023-01-13T12:21:07.978Z,59.07
2023-01-13T12:22:14.850Z,58.63
2023-01-13T12:24:12.931Z,59.38
2023-01-13T12:25:39.641Z,58.49
2023-01-13T12:31:42.043Z,58.60
2023-01-13T12:33:28.376Z,58.19
2023-01-13T12:35:07.647Z,58.91
2023-01-13T12:36:25.287Z,58.94
2023-01-13T12:37:50.054Z,58.95
2023-01-13T12:39:15.538Z,59.02
2023-01-13T12:40:42.346Z,59.52
2023-01-13T12:42:20.782Z,59.00
2023-01-13T12:43:43.075Z,60.63
2023-01-13T12:45:07.980Z,60.35
2023-01-13T12:46:25.567Z,60.56
2023-01-13T12:52:06.769Z,60.00
2023-01-13T12:53:31.543Z,60.55
2023-01-13T12:55:27.785Z,60.61
2023-01-13T12:56:56.021Z,61.35
2023-01-13T12:58:12.463Z,61.55
2023-01-13T13:00:01.990Z,62.09
2023-01-13T13:07:44.142Z,65.48
2023-01-13T13:09:03.152Z,66.55
2023-01-13T13:13:11.236Z,68.22
2023-01-13T13:15:03.614Z,71.93
2023-01-13T13:17:34.866Z,74.03
2023-01-13T13:22:27.226Z,76.41
2023-01-13T13:23:57.471Z,76.15
2023-01-13T13:25:11.959Z,75.09
2023-01-13T13:26:20.164Z,75.22
2023-01-13T13:28:01.638Z,75.82
2023-01-13T13:29:43.727Z,74.08
2023-01-13T13:33:57.698Z,73.68
2023-01-13T13:38:29.689Z,75.03
2023-01-13T13:40:10.917Z,74.06
2023-01-13T13:42:54.766Z,74.37
2023-01-13T13:46:36.540Z,75.54
2023-01-13T13:47:39.871Z,74.56
2023-01-13T13:48:53.734Z,75.14
2023-01-13T13:50:16.475Z,75.68
2023-01-13T13:51:28.572Z,76.21
2023-01-13T13:52:59.398Z,76.83
2023-01-13T13:54:04.078Z,76.62
2023-01-13T13:55:22.136Z,76.56
2023-01-13T13:56:28.283Z,77.11
2023-01-13T13:57:39.816Z,77.19
2023-01-13T13:58:42.079Z,77.64
2023-01-13T13:59:58.939Z,76.45
2023-01-13T14:01:32.379Z,76.35
2023-01-13T14:02:37.625Z,76.28
2023-01-13T14:03:40.318Z,75.93
2023-01-13T14:04:42.819Z,76.56
2023-01-13T14:05:57.381Z,76.22
2023-01-13T14:08:31.292Z,76.47
2023-01-13T14:11:41.359Z,75.91
2023-01-13T14:16:14.377Z,74.61
2023-01-13T14:17:28.873Z,74.80
2023-01-13T14:19:07.918Z,74.93
2023-01-13T14:20:20.768Z,75.34
2023-01-13T14:24:21.090Z,74.53
2023-01-13T14:25:29.156Z,75.10
2023-01-13T14:26:57.962Z,76.20
2023-01-13T14:28:42.182Z,76.66
2023-01-13T14:32:46.910Z,74.61
2023-01-13T14:33:52.206Z,75.29
2023-01-13T14:34:54.680Z,75.48
2023-01-13T14:37:07.213Z,76.08
2023-01-13T14:38:31.493Z,75.94
2023-01-13T14:41:50.394Z,75.51
2023-01-13T14:43:32.055Z,75.46
2023-01-13T14:45:29.804Z,75.51
2023-01-13T14:46:40.003Z,75.55
2023-01-13T14:49:06.650Z,75.18
2023-01-13T14:53:34.332Z,75.53
2023-01-13T14:55:23.048Z,73.35
2023-01-13T14:56:47.121Z,72.82
2023-01-13T14:58:12.329Z,72.66
2023-01-13T15:02:15.757Z,72.83
2023-01-13T15:06:31.917Z,73.30
2023-01-13T15:07:42.612Z,72.44
2023-01-13T15:08:44.446Z,73.24
2023-01-13T15:09:46.012Z,73.26
2023-01-13T15:11:33.603Z,73.13
2023-01-13T15:12:46.435Z,72.89
2023-01-13T15:16:46.090Z,73.92
2023-01-13T15:17:49.229Z,73.25
2023-01-13T15:19:01.007Z,73.76
2023-01-13T15:20:53.914Z,74.11
2023-01-13T15:22:04.094Z,74.88
2023-01-13T15:23:14.791Z,74.49
2023-01-13T15:24:23.969Z,75.32
2023-01-13T15:25:25.688Z,75.32
2023-01-13T15:26:32.069Z,75.36
2023-01-13T15:27:50.008Z,75.27
2023-01-13T15:28:53.531Z,75.41
2023-01-13T15:29:54.950Z,75.34
2023-01-13T15:31:00.533Z,75.46
2023-01-13T15:32:40.407Z,74.83
2023-01-13T15:37:19.686Z,76.13
2023-01-13T15:38:23.489Z,75.95
2023-01-13T15:39:24.976Z,75.82
2023-01-13T15:40:35.559Z,76.29
2023-01-13T15:41:59.251Z,76.27
2023-01-13T15:43:20.343Z,76.71
2023-01-13T15:44:40.407Z,76.24
2023-01-13T15:46:00.971Z,75.51
2023-01-13T15:47:07.271Z,75.97
2023-01-13T15:48:11.877Z,75.90
2023-01-13T15:49:34.757Z,75.66
2023-01-13T15:50:39.226Z,74.41
2023-01-13T15:51:52.057Z,74.91
2023-01-13T15:52:53.665Z,74.66
2023-01-13T15:53:56.647Z,74.89
2023-01-13T15:56:23.388Z,73.03
2023-01-13T15:57:28.512Z,74.36
2023-01-13T15:58:39.517Z,74.35
2023-01-13T16:00:14.458Z,74.44
2023-01-13T16:01:19.013Z,74.79
2023-01-13T16:02:22.621Z,74.50
2023-01-13T16:03:24.299Z,75.03
2023-01-13T16:04:25.848Z,75.91
2023-01-13T16:05:30.235Z,76.17
2023-01-13T16:06:53.078Z,76.52
2023-01-13T16:07:58.545Z,77.74
2023-01-13T16:09:13.187Z,79.41
2023-01-13T16:10:27.725Z,81.10
2023-01-13T16:11:29.403Z,82.96
2023-01-13T16:12:32.431Z,84.25
2023-01-13T16:13:33.932Z,85.42
2023-01-13T16:14:41.935Z,86.92
2023-01-13T16:15:48.421Z,87.15
2023-01-13T16:16:51.785Z,86.78
2023-01-13T16:18:18.036Z,87.89
2023-01-13T16:19:19.555Z,87.91
2023-01-13T16:20:21.457Z,88.53
2023-01-13T16:21:23.525Z,88.01
2023-01-13T16:22:25.100Z,88.94
2023-01-13T16:23:26.780Z,89.09
2023-01-13T16:24:38.627Z,89.69
2023-01-13T16:25:43.156Z,89.64
2023-01-13T16:26:44.948Z,89.72
2023-01-13T16:27:46.732Z,89.97
2023-01-13T16:28:50.608Z,90.06
2023-01-13T16:29:52.954Z,90.43
2023-01-13T16:30:54.672Z,90.21
2023-01-13T16:31:56.240Z,90.00
2023-01-13T16:32:58.149Z,89.74
2023-01-13T16:34:01.955Z,89.93
2023-01-13T16:35:03.493Z,89.65
2023-01-13T16:36:17.797Z,90.03
2023-01-13T16:37:21.301Z,90.53
2023-01-13T16:38:22.898Z,90.37
2023-01-13T16:39:24.414Z,90.07
2023-01-13T16:40:32.347Z,90.16
2023-01-13T16:41:34.476Z,90.37